createdAt,value
2019-03-03T00:00:21.833Z,52.57
2019-03-03T00:02:53.901Z,44.67
2019-03-03T00:05:24.860Z,44.50
2019-03-03T00:07:55.697Z,45.40
2019-03-03T00:10:27.403Z,43.83
2019-03-03T00:12:58.352Z,45.17
2019-03-03T00:15:29.195Z,46.60
2019-03-03T00:17:59.807Z,50.23
2019-03-03T00:20:30.972Z,48.50
2019-03-03T00:23:01.603Z,51.93
2019-03-03T00:25:32.218Z,50.67
2019-03-03T00:28:02.978Z,53.50
2019-03-03T00:30:33.665Z,62.73
2019-03-03T00:33:06.953Z,54.80
2019-03-03T00:35:37.389Z,51.40
2019-03-03T00:38:27.064Z,54.70
2019-03-03T00:41:30.494Z,55.30
2019-03-03T00:44:22.771Z,56.50
2019-03-03T00:47:06.253Z,57.00
2019-03-03T00:50:13.963Z,61.27
2019-03-03T00:52:52.914Z,54.57
2019-03-03T00:55:44.474Z,57.53
2019-03-03T00:58:36.587Z,57.30
2019-03-03T01:01:19.060Z,63.67
2019-03-03T01:03:55.716Z,60.77
2019-03-03T01:06:54.620Z,60.03
2019-03-03T01:09:44.855Z,62.10
2019-03-03T01:12:37.931Z,62.73
2019-03-03T01:15:34.243Z,61.00
2019-03-03T01:18:26.907Z,62.87
2019-03-03T01:21:09.961Z,62.47
2019-03-03T01:24:05.487Z,66.23
2019-03-03T01:26:35.873Z,62.37
2019-03-03T01:29:06.608Z,61.53
2019-03-03T01:31:37.513Z,65.03
2019-03-03T01:34:08.727Z,61.50
2019-03-03T01:36:39.425Z,62.63
2019-03-03T01:39:10.857Z,63.37
2019-03-03T01:41:41.309Z,64.40
2019-03-03T01:44:13.877Z,67.33
2019-03-03T01:46:44.575Z,62.50
2019-03-03T01:49:15.101Z,66.33
2019-03-03T01:51:45.704Z,66.40
2019-03-03T01:54:16.242Z,63.90
2019-03-03T01:56:46.976Z,70.57
2019-03-03T01:59:18.900Z,74.00
2019-03-03T02:01:49.672Z,64.13
2019-03-03T02:04:20.435Z,64.97
2019-03-03T02:06:52.168Z,71.93
2019-03-03T02:09:22.926Z,67.70
2019-03-03T02:11:53.489Z,73.37
2019-03-03T02:14:24.120Z,72.17
2019-03-03T02:16:54.846Z,70.13
2019-03-03T02:19:25.671Z,72.67
2019-03-03T02:21:56.232Z,74.63
2019-03-03T02:24:26.892Z,71.70
2019-03-03T02:26:57.820Z,77.90
2019-03-03T02:29:28.502Z,74.97
2019-03-03T02:31:59.543Z,77.03
2019-03-03T02:34:30.931Z,72.87
2019-03-03T02:37:01.730Z,75.90
2019-03-03T02:39:32.407Z,72.10
2019-03-03T02:42:02.945Z,78.03
2019-03-03T02:44:33.459Z,73.90
2019-03-03T02:47:04.163Z,72.17
2019-03-03T02:49:34.623Z,74.70
2019-03-03T02:52:05.278Z,73.33
2019-03-03T02:54:35.998Z,77.13
2019-03-03T02:57:06.588Z,75.07
2019-03-03T02:59:37.181Z,75.13
2019-03-03T03:02:13.760Z,71.03
2019-03-03T03:04:44.388Z,72.77
2019-03-03T03:07:42.021Z,77.43
2019-03-03T03:10:18.338Z,68.17
2019-03-03T03:13:14.074Z,73.20
2019-03-03T03:15:50.342Z,76.03
2019-03-03T03:18:38.886Z,71.33
2019-03-03T03:21:20.467Z,78.33
2019-03-03T03:24:12.822Z,79.37
2019-03-03T03:30:12.406Z,76.37
2019-03-03T03:32:54.776Z,77.43
2019-03-03T03:35:59.366Z,80.03
2019-03-03T03:38:46.468Z,75.60
2019-03-03T03:41:28.570Z,72.73
2019-03-03T03:44:11.641Z,80.37
2019-03-03T03:46:47.518Z,74.63
2019-03-03T03:49:28.420Z,76.13
2019-03-03T03:52:16.436Z,74.97
2019-03-03T03:55:19.022Z,75.53
2019-03-03T03:57:57.424Z,78.37
2019-03-03T04:00:38.680Z,76.93
2019-03-03T04:03:27.097Z,75.33
2019-03-03T04:06:22.471Z,75.43
2019-03-03T04:09:01.996Z,78.13
2019-03-03T04:11:56.385Z,69.07
2019-03-03T04:14:40.521Z,74.20
2019-03-03T04:17:33.580Z,69.30
2019-03-03T04:20:32.547Z,71.97
2019-03-03T04:23:22.158Z,74.83
2019-03-03T04:26:19.148Z,79.00
2019-03-03T04:29:29.964Z,66.87
2019-03-03T04:32:18.012Z,74.77
2019-03-03T04:35:06.471Z,75.43
2019-03-03T04:37:43.137Z,68.10
2019-03-03T04:40:18.083Z,75.33
2019-03-03T04:43:25.856Z,74.53
2019-03-03T04:46:18.163Z,67.40
2019-03-03T04:49:19.734Z,74.90
2019-03-03T04:52:24.673Z,72.97
2019-03-03T04:55:13.051Z,70.67
2019-03-03T04:58:01.359Z,69.03
2019-03-03T05:00:43.706Z,70.90
2019-03-03T05:03:33.383Z,71.13
2019-03-03T05:06:38.071Z,69.87
2019-03-03T05:09:22.732Z,70.60
2019-03-03T05:12:35.716Z,71.57
2019-03-03T05:15:37.819Z,71.53
2019-03-03T05:18:36.476Z,69.80
2019-03-03T05:21:07.260Z,77.70
2019-03-03T05:23:38.304Z,68.63
2019-03-03T05:26:09.199Z,69.60
2019-03-03T05:28:40.143Z,77.13
2019-03-03T05:31:11.122Z,73.90
2019-03-03T05:33:41.790Z,74.73
2019-03-03T05:36:12.650Z,74.30
2019-03-03T05:38:43.102Z,68.67
2019-03-03T05:41:13.877Z,73.27
2019-03-03T05:43:44.392Z,71.77
2019-03-03T05:46:15.295Z,71.70
2019-03-03T05:48:46.171Z,83.10
2019-03-03T05:51:16.869Z,74.90
2019-03-03T05:53:47.737Z,80.40
2019-03-03T05:56:19.078Z,77.83
2019-03-03T05:58:49.671Z,81.17
2019-03-03T06:01:20.463Z,78.57
2019-03-03T06:03:51.188Z,85.40
2019-03-03T06:06:21.825Z,85.77
2019-03-03T06:08:57.965Z,80.93
2019-03-03T06:11:31.268Z,81.90
2019-03-03T06:14:01.935Z,84.10
2019-03-03T06:16:36.421Z,82.67
2019-03-03T06:19:07.373Z,78.67
2019-03-03T06:21:38.107Z,83.13
2019-03-03T06:24:08.946Z,86.20
2019-03-03T06:26:39.414Z,80.20
2019-03-03T06:29:10.211Z,85.87
2019-03-03T06:31:41.523Z,81.30
2019-03-03T06:34:12.146Z,83.70
2019-03-03T06:36:43.008Z,77.43
2019-03-03T06:39:13.744Z,88.93
2019-03-03T06:41:44.810Z,82.97
2019-03-03T06:44:17.268Z,81.07
2019-03-03T06:46:48.160Z,82.93
2019-03-03T06:49:19.332Z,82.90
2019-03-03T06:51:50.754Z,83.17
2019-03-03T06:54:21.736Z,77.57
2019-03-03T06:56:53.603Z,78.13
2019-03-03T06:59:24.474Z,80.77
2019-03-03T07:01:55.537Z,82.13
2019-03-03T07:04:26.315Z,77.57
2019-03-03T07:06:57.350Z,79.53
2019-03-03T07:09:28.230Z,76.83
2019-03-03T07:11:58.910Z,81.73
2019-03-03T07:14:38.904Z,78.17
2019-03-03T07:17:10.518Z,80.10
2019-03-03T07:19:41.811Z,78.03
2019-03-03T07:22:12.747Z,77.33
2019-03-03T07:24:43.733Z,91.30
2019-03-03T07:27:14.680Z,76.67
2019-03-03T07:29:45.577Z,81.67
2019-03-03T07:32:16.149Z,84.23
2019-03-03T07:34:47.162Z,78.90
2019-03-03T07:37:18.108Z,80.67
2019-03-03T07:39:49.001Z,81.03
2019-03-03T07:42:20.005Z,79.03
2019-03-03T07:44:51.109Z,85.83
2019-03-03T07:47:22.146Z,83.03
2019-03-03T07:49:53.097Z,81.43
2019-03-03T07:52:24.041Z,80.23
2019-03-03T07:54:54.709Z,82.97
2019-03-03T07:57:25.799Z,82.40
2019-03-03T07:59:56.824Z,80.83
2019-03-03T08:02:27.719Z,86.30
2019-03-03T08:04:59.475Z,86.37
2019-03-03T08:07:30.275Z,75.23
2019-03-03T08:10:01.190Z,78.07
2019-03-03T08:12:32.357Z,77.93
2019-03-03T08:15:03.566Z,78.23
2019-03-03T08:17:34.613Z,80.10
2019-03-03T08:20:06.762Z,67.80
2019-03-03T08:22:37.694Z,70.67
2019-03-03T08:25:08.962Z,66.33
2019-03-03T08:27:40.986Z,67.90
2019-03-03T08:30:11.691Z,69.03
2019-03-03T08:32:48.730Z,65.73
2019-03-03T08:35:19.470Z,63.60
2019-03-03T08:37:50.492Z,63.97
2019-03-03T08:40:21.358Z,67.43
2019-03-03T08:43:14.028Z,64.80
2019-03-03T08:46:03.887Z,64.03
2019-03-03T08:49:02.576Z,66.03
2019-03-03T08:52:01.985Z,67.80
2019-03-03T08:54:54.573Z,64.23
2019-03-03T08:57:46.096Z,65.17
2019-03-03T09:03:58.338Z,65.10
2019-03-03T09:06:57.291Z,69.47
2019-03-03T09:09:44.103Z,68.70
2019-03-03T09:12:43.242Z,62.40
2019-03-03T09:15:33.133Z,66.97
2019-03-03T09:18:32.273Z,63.10
2019-03-03T09:21:25.027Z,63.80
2019-03-03T09:24:14.721Z,64.50
2019-03-03T09:26:57.754Z,63.50
2019-03-03T09:29:50.318Z,57.70
2019-03-03T09:32:40.058Z,63.80
2019-03-03T09:35:20.256Z,69.45
2019-03-03T09:38:13.043Z,61.03
2019-03-03T09:40:58.385Z,59.80
2019-03-03T09:43:35.357Z,58.60
2019-03-03T09:46:23.921Z,56.23
2019-03-03T09:49:09.474Z,59.87
2019-03-03T09:52:03.704Z,53.53
2019-03-03T09:54:43.545Z,54.77
2019-03-03T09:57:24.978Z,56.97
2019-03-03T10:00:15.488Z,53.27
2019-03-03T10:02:57.324Z,55.53
2019-03-03T10:05:46.088Z,53.70
2019-03-03T10:08:23.757Z,54.03
2019-03-03T10:11:14.378Z,51.10
2019-03-03T10:14:02.329Z,52.07
2019-03-03T10:17:04.570Z,44.87
2019-03-03T10:19:54.456Z,50.23
2019-03-03T10:22:43.946Z,45.53
2019-03-03T10:25:43.081Z,62.57
2019-03-03T10:28:33.550Z,51.00
2019-03-03T10:31:25.219Z,47.43
2019-03-03T10:34:01.894Z,50.63
2019-03-03T10:36:55.105Z,56.13
2019-03-03T10:39:52.024Z,47.03
2019-03-03T10:42:42.084Z,46.93
2019-03-03T10:45:30.723Z,49.17
2019-03-03T10:48:20.633Z,49.90
2019-03-03T10:51:11.061Z,46.87
2019-03-03T10:54:00.147Z,50.70
2019-03-03T10:56:59.143Z,48.27
2019-03-03T10:59:54.970Z,47.67
2019-03-03T11:02:38.398Z,48.70
2019-03-03T11:05:27.157Z,47.93
2019-03-03T11:08:16.904Z,46.33
2019-03-03T11:11:07.224Z,48.47
2019-03-03T11:13:43.305Z,44.03
2019-03-03T11:16:32.253Z,47.93
2019-03-03T11:19:15.941Z,52.55
2019-03-03T11:22:08.313Z,49.07
2019-03-03T11:25:01.529Z,49.00
2019-03-03T11:27:56.508Z,51.73
2019-03-03T11:30:55.672Z,52.27
2019-03-03T11:34:02.248Z,47.87
2019-03-03T11:36:50.014Z,55.70
2019-03-03T11:39:33.330Z,47.83
2019-03-03T11:42:10.563Z,47.10
2019-03-03T11:45:16.497Z,44.30
2019-03-03T11:48:28.187Z,49.50
2019-03-03T11:51:18.264Z,47.07
2019-03-03T11:53:57.622Z,44.50
2019-03-03T11:56:49.228Z,45.73
2019-03-03T11:59:36.289Z,49.90
2019-03-03T12:02:27.752Z,55.67
2019-03-03T12:05:29.936Z,49.70
2019-03-03T12:08:19.438Z,50.80
2019-03-03T12:11:08.252Z,46.77
2019-03-03T12:14:01.252Z,45.97
2019-03-03T12:17:06.486Z,46.43
2019-03-03T12:20:02.640Z,58.20
2019-03-03T12:22:59.051Z,52.67
2019-03-03T12:25:54.426Z,53.43
2019-03-03T12:28:49.799Z,61.83
2019-03-03T12:31:27.919Z,56.00
2019-03-03T12:34:19.237Z,59.30
2019-03-03T12:36:59.571Z,57.73
2019-03-03T12:40:04.104Z,57.83
2019-03-03T12:42:43.141Z,50.87
2019-03-03T12:45:21.721Z,52.40
2019-03-03T12:48:23.480Z,50.63
2019-03-03T12:51:25.584Z,48.17
2019-03-03T12:54:16.612Z,51.97
2019-03-03T12:57:00.319Z,53.43
2019-03-03T12:59:45.773Z,45.40
2019-03-03T13:02:38.963Z,46.40
2019-03-03T13:05:16.683Z,50.70
2019-03-03T13:07:54.247Z,50.10
2019-03-03T13:10:50.481Z,45.10
2019-03-03T13:13:29.623Z,48.27
2019-03-03T13:16:15.349Z,46.47
2019-03-03T13:18:57.222Z,48.00
2019-03-03T13:21:59.178Z,50.53
2019-03-03T13:24:55.120Z,52.73
2019-03-03T13:27:48.708Z,48.57
2019-03-03T13:30:53.826Z,46.17
2019-03-03T13:33:40.018Z,46.60
2019-03-03T13:36:36.000Z,47.47
2019-03-03T13:39:28.152Z,44.33
2019-03-03T13:42:27.387Z,42.00
2019-03-03T13:44:59.563Z,46.40
2019-03-03T13:47:30.835Z,44.53
2019-03-03T13:50:02.090Z,46.73
2019-03-03T13:52:36.845Z,43.57
2019-03-03T13:55:08.688Z,45.63
2019-03-03T13:57:40.275Z,43.47
2019-03-03T14:00:13.431Z,46.03
2019-03-03T14:02:44.424Z,44.17
2019-03-03T14:05:17.619Z,40.90
2019-03-03T14:07:48.897Z,43.80
2019-03-03T14:10:28.373Z,41.63
2019-03-03T14:12:59.621Z,44.20
2019-03-03T14:15:30.337Z,43.67
2019-03-03T14:18:01.306Z,41.07
2019-03-03T14:20:32.671Z,39.80
2019-03-03T14:23:03.410Z,40.63
2019-03-03T14:25:34.491Z,43.00
2019-03-03T14:28:07.733Z,37.77
2019-03-03T14:30:38.978Z,41.00
2019-03-03T14:33:09.931Z,39.93
2019-03-03T14:35:40.842Z,40.00
2019-03-03T14:38:11.974Z,42.13
2019-03-03T14:40:42.956Z,36.60
2019-03-03T14:43:15.386Z,40.53
2019-03-03T14:45:46.394Z,37.67
2019-03-03T14:48:18.118Z,38.30
2019-03-03T14:50:49.242Z,41.73
2019-03-03T14:53:21.467Z,39.70
2019-03-03T14:55:52.605Z,37.57
2019-03-03T14:58:23.502Z,40.90
2019-03-03T15:00:55.459Z,39.93
2019-03-03T15:03:27.355Z,38.27
2019-03-03T15:05:58.464Z,40.33
2019-03-03T15:08:30.980Z,40.27
2019-03-03T15:11:01.772Z,39.87
2019-03-03T15:13:32.417Z,38.60
2019-03-03T15:16:03.457Z,39.00
2019-03-03T15:18:34.627Z,39.30
2019-03-03T15:21:07.933Z,37.70
2019-03-03T15:23:38.819Z,35.27
2019-03-03T15:26:10.932Z,36.90
2019-03-03T15:28:41.835Z,33.03
2019-03-03T15:31:16.122Z,33.27
2019-03-03T15:33:47.137Z,32.30
2019-03-03T15:36:17.851Z,30.10
2019-03-03T15:38:48.657Z,34.23
2019-03-03T15:41:20.761Z,29.90
2019-03-03T15:43:51.479Z,35.10
2019-03-03T15:46:22.440Z,30.73
2019-03-03T15:48:53.227Z,27.10
2019-03-03T15:51:24.116Z,29.33
2019-03-03T15:53:55.065Z,29.07
2019-03-03T15:56:25.961Z,27.33
2019-03-03T15:58:56.706Z,31.53
2019-03-03T16:01:27.609Z,30.17
2019-03-03T16:04:00.205Z,32.57
2019-03-03T16:06:30.822Z,35.20
2019-03-03T16:09:01.637Z,31.13
2019-03-03T16:11:34.056Z,35.00
2019-03-03T16:14:05.003Z,30.53
2019-03-03T16:16:35.864Z,32.20
2019-03-03T16:19:06.891Z,32.53
2019-03-03T16:21:37.726Z,28.63
2019-03-03T16:24:08.675Z,30.47
2019-03-03T16:26:40.833Z,34.90
2019-03-03T16:29:12.220Z,31.23
2019-03-03T16:31:43.286Z,30.33
2019-03-03T16:34:13.978Z,28.77
2019-03-03T16:36:44.616Z,29.43
2019-03-03T16:39:16.036Z,28.47
2019-03-03T16:41:46.973Z,30.03
2019-03-03T16:44:17.817Z,26.77
2019-03-03T16:46:49.388Z,30.97
2019-03-03T16:49:20.236Z,26.53
2019-03-03T16:51:51.185Z,31.77
2019-03-03T16:54:21.971Z,29.60
2019-03-03T16:56:53.041Z,27.17
2019-03-03T16:59:26.555Z,26.30
2019-03-03T17:01:57.303Z,29.90
2019-03-03T17:04:28.119Z,27.07
2019-03-03T17:07:00.219Z,29.93
2019-03-03T17:09:31.447Z,27.77
2019-03-03T17:12:02.112Z,31.30
2019-03-03T17:14:32.829Z,35.37
2019-03-03T17:17:03.562Z,28.87
2019-03-03T17:19:34.903Z,28.33
2019-03-03T17:22:05.835Z,28.90
2019-03-03T17:24:36.470Z,27.33
2019-03-03T17:27:07.492Z,26.03
2019-03-03T17:29:39.441Z,28.20
2019-03-03T17:32:10.897Z,29.73
2019-03-03T17:34:41.863Z,29.93
2019-03-03T17:37:12.804Z,31.13
2019-03-03T17:39:44.054Z,30.97
2019-03-03T17:42:14.858Z,28.67
2019-03-03T17:44:45.822Z,24.80
2019-03-03T17:47:16.760Z,23.60
2019-03-03T17:49:47.474Z,22.47
2019-03-03T17:52:18.376Z,28.30
2019-03-03T17:54:49.121Z,25.60
2019-03-03T17:57:20.330Z,21.53
2019-03-03T17:59:51.531Z,24.87
2019-03-03T18:02:23.448Z,25.47
2019-03-03T18:04:54.432Z,25.73
2019-03-03T18:07:25.773Z,26.73
2019-03-03T18:09:57.375Z,26.50
2019-03-03T18:12:28.668Z,30.00
2019-03-03T18:14:59.752Z,29.93
2019-03-03T18:17:30.920Z,30.43
2019-03-03T18:20:02.047Z,27.73
2019-03-03T18:22:33.334Z,26.73
2019-03-03T18:25:05.000Z,26.17
2019-03-03T18:27:35.971Z,28.33
2019-03-03T18:30:08.780Z,25.80
2019-03-03T18:32:40.293Z,27.27
2019-03-03T18:35:13.057Z,32.10
2019-03-03T18:37:44.979Z,30.30
2019-03-03T18:40:18.112Z,34.53
2019-03-03T18:42:49.318Z,32.10
2019-03-03T18:45:21.124Z,34.60
2019-03-03T18:47:51.919Z,33.70
2019-03-03T18:50:23.167Z,33.83
2019-03-03T18:52:54.969Z,34.93
2019-03-03T18:55:26.809Z,37.73
2019-03-03T18:57:58.181Z,35.77
2019-03-03T19:00:31.545Z,33.73
2019-03-03T19:03:03.742Z,37.00
2019-03-03T19:05:37.402Z,34.40
2019-03-03T19:08:08.241Z,34.53
2019-03-03T19:10:39.766Z,33.37
2019-03-03T19:13:10.693Z,37.33
2019-03-03T19:15:42.201Z,35.20
2019-03-03T19:18:13.933Z,34.00
2019-03-03T19:20:44.834Z,40.67
2019-03-03T19:23:16.215Z,36.03
2019-03-03T19:25:47.614Z,36.37
2019-03-03T19:28:18.840Z,39.17
2019-03-03T19:30:50.466Z,35.37
2019-03-03T19:33:25.786Z,35.23
2019-03-03T19:35:56.920Z,41.73
2019-03-03T19:38:29.882Z,41.97
2019-03-03T19:41:01.082Z,39.47
2019-03-03T19:43:32.020Z,39.03
2019-03-03T19:46:03.293Z,38.80
2019-03-03T19:48:35.927Z,35.30
2019-03-03T19:51:08.178Z,34.90
2019-03-03T19:53:40.902Z,36.77
2019-03-03T19:56:12.206Z,37.30
2019-03-03T19:58:44.058Z,37.50
2019-03-03T20:01:14.938Z,35.73
2019-03-03T20:03:47.347Z,33.37
2019-03-03T20:06:21.487Z,38.03
2019-03-03T20:08:52.767Z,39.77
2019-03-03T20:11:23.734Z,35.57
2019-03-03T20:13:54.927Z,36.93
2019-03-03T20:16:26.567Z,36.00
2019-03-03T20:18:57.705Z,40.20
2019-03-03T20:21:28.737Z,35.07
2019-03-03T20:24:00.495Z,35.03
2019-03-03T20:26:34.429Z,36.23
2019-03-03T20:29:06.065Z,35.83
2019-03-03T20:31:37.483Z,37.80
2019-03-03T20:34:08.802Z,38.07
2019-03-03T20:36:40.013Z,37.47
2019-03-03T20:39:10.910Z,40.77
2019-03-03T20:41:41.939Z,41.53
2019-03-03T20:44:12.839Z,37.07
2019-03-03T20:46:43.986Z,37.57
2019-03-03T20:49:14.892Z,35.67
2019-03-03T20:51:46.134Z,35.43
2019-03-03T20:54:17.054Z,35.67
2019-03-03T20:56:47.843Z,38.27
2019-03-03T20:59:18.450Z,36.43
2019-03-03T21:01:50.412Z,37.53
2019-03-03T21:04:21.388Z,38.60
2019-03-03T21:06:52.034Z,39.53
2019-03-03T21:09:22.920Z,38.60
2019-03-03T21:11:53.790Z,36.63
2019-03-03T21:14:24.256Z,36.67
2019-03-03T21:16:56.238Z,37.63
2019-03-03T21:19:27.102Z,38.27
2019-03-03T21:21:58.553Z,33.53
2019-03-03T21:24:29.507Z,35.97
2019-03-03T21:27:00.379Z,35.87
2019-03-03T21:29:31.131Z,37.57
2019-03-03T21:32:01.657Z,36.43
2019-03-03T21:34:32.448Z,38.63
2019-03-03T21:37:03.027Z,36.17
2019-03-03T21:39:33.879Z,36.93
2019-03-03T21:42:04.915Z,31.70
2019-03-03T21:44:35.451Z,34.13
2019-03-03T21:47:06.502Z,36.47
2019-03-03T21:49:37.310Z,36.00
2019-03-03T21:52:09.303Z,37.47
2019-03-03T21:54:40.391Z,37.23
2019-03-03T21:57:12.237Z,42.27
2019-03-03T21:59:43.328Z,35.93
2019-03-03T22:02:14.286Z,35.97
2019-03-03T22:04:45.368Z,47.97
2019-03-03T22:07:16.265Z,33.53
2019-03-03T22:09:47.708Z,31.27
2019-03-03T22:12:18.571Z,38.23
2019-03-03T22:14:49.570Z,35.03
2019-03-03T22:17:20.139Z,35.63
2019-03-03T22:19:51.013Z,30.70
2019-03-03T22:22:21.458Z,31.87
2019-03-03T22:24:52.372Z,28.73
2019-03-03T22:27:24.110Z,31.10
2019-03-03T22:29:56.193Z,34.67
2019-03-03T22:32:27.082Z,35.23
2019-03-03T22:34:57.970Z,35.73
2019-03-03T22:37:29.015Z,33.37
2019-03-03T22:39:59.874Z,31.07
2019-03-03T22:42:30.466Z,37.37
2019-03-03T22:45:01.560Z,32.33
2019-03-03T22:47:32.749Z,31.27
2019-03-03T22:50:03.796Z,32.90
2019-03-03T22:52:34.704Z,35.30
2019-03-03T22:55:06.118Z,34.13
2019-03-03T22:57:36.765Z,34.37
2019-03-03T23:00:15.650Z,35.13
2019-03-03T23:02:48.204Z,34.43
2019-03-03T23:05:33.057Z,32.90
2019-03-03T23:08:08.297Z,31.83
2019-03-03T23:11:10.004Z,33.67
2019-03-03T23:14:42.896Z,38.07
2019-03-03T23:17:32.801Z,32.40
2019-03-03T23:20:14.924Z,32.40
2019-03-03T23:23:33.525Z,33.63
2019-03-03T23:26:04.491Z,34.10
2019-03-03T23:28:35.449Z,35.13
2019-03-03T23:31:06.487Z,35.27
2019-03-03T23:33:37.541Z,32.37
2019-03-03T23:36:08.243Z,36.90
2019-03-03T23:38:38.731Z,36.07
2019-03-03T23:41:09.311Z,34.93
2019-03-03T23:43:40.143Z,34.83
2019-03-03T23:46:10.791Z,36.63
2019-03-03T23:48:41.403Z,33.07
2019-03-03T23:51:12.189Z,39.37
2019-03-03T23:53:43.130Z,37.80
2019-03-03T23:56:14.106Z,36.20
2019-03-03T23:58:52.436Z,36.37
